Latest Coastal Weather Observations for Gove Airport

IDD60701

Issued at 4:21 am CST Saturday 2 July 2016 (issued every 10 minutes, with the page automatically refreshed every 10 minutes)

About coastal observations | Map of coastal stations | Coastal observations for NT | Marine services | Other Formats
Station Details ID: 014508 Name: GOVE AIRPORT Lat: -12.27 Lon: 136.82 Height: 51.6 m
Data from the previous 72 hours. | See also: Recent months at Gove Airport
Date/Time
CST
Temp
°C
Wind Pressure Rain since
9am
mm
Weather Cloud Vis
km
Sea
Height
m
Swell
Dir  Spd
kts
Gust
kts
hPa Trend Height
m
Period
s
Dir
02/04:00am 23.9 SE 6 8 1015.0 - 0.0 - Partly cloudy 10 - - - -
02/03:30am 23.3 SE 6 8 1015.0 - 0.0 - Partly cloudy 10 - - - -
02/03:00am 23.5 SE 6 9 1015.1 R 0.0 - Partly cloudy 10 - - - -
02/02:30am 23.4 SE 6 8 1015.2 - 0.0 - Partly cloudy 10 - - - -
02/02:00am 23.4 SSE 5 8 1015.3 - 0.0 - - 10 - - - -
02/01:30am 24.0 SE 7 11 1015.5 - 0.0 - - 10 - - - -
02/01:00am 24.4 SE 9 13 1015.8 - 0.0 - - 10 - - - -
02/12:30am 24.8 SE 10 14 1016.0 - 0.0 - Partly cloudy 10 - - - -
02/12:00am 25.0 SE 10 13 1016.0 R 0.0 - Mostly clear 10 - - - -
 
Date/Time
CST
Temp
°C
Wind Pressure Rain since
9am
mm
Weather Cloud Vis
km
Sea
Height
m
Swell
Dir  Spd
kts
Gust
kts
hPa Trend Height
m
Period
s
Dir
01/11:30pm 25.1 SE 11 17 1016.3 - 0.0 - - 10 - - - -
01/11:00pm 25.4 SE 11 16 1016.4 - 0.0 - Partly cloudy 10 - - - -
01/10:30pm 24.9 SE 9 12 1016.4 - 0.0 - Partly cloudy 10 - - - -
01/10:00pm 25.0 SE 9 13 1016.4 - 0.0 - - 10 - - - -
01/09:30pm 25.4 ESE 11 16 1016.2 - 0.0 - Partly cloudy 10 - - - -
01/09:00pm 25.1 SE 9 11 1016.0 R 0.0 - Mostly clear 10 - - - -
01/08:30pm 25.6 SE 9 16 1015.8 - 0.0 - Partly cloudy 10 - - - -
01/08:00pm 25.0 ESE 10 15 1015.5 - 0.0 - Partly cloudy 10 - - - -
01/07:30pm 25.2 ESE 9 13 1015.2 - 0.0 - Partly cloudy 10 - - - -
01/07:00pm 25.8 ESE 11 16 1014.8 - 0.0 - Partly cloudy 10 - - - -
01/06:30pm 26.0 ESE 10 14 1014.6 - 0.0 - Partly cloudy 10 - - - -
01/06:00pm 26.4 ESE 9 11 1014.3 R 0.0 - Cloudy 10 - - - -
01/05:30pm 26.7 ESE 12 17 1014.2 - 0.0 - Partly cloudy 10 - - - -
01/05:00pm 27.6 SE 12 19 1013.9 - 0.0 - Partly cloudy 10 - - - -
01/04:30pm 27.3 SE 14 19 1013.6 - 0.0 - Partly cloudy 10 - - - -
01/04:00pm 28.0 ESE 14 19 1013.5 - 0.0 - Mostly clear 10 - - - -
01/03:30pm 27.7 SE 15 25 1013.3 - 0.0 - Mostly cloudy 10 - - - -
01/03:27pm 27.9 SE 15 25 1013.4 - 0.0 - Mostly cloudy 10 - - - -
01/03:00pm 28.3 ESE 17 23 1013.3 R 0.0 - Cloudy 10 - - - -
01/02:30pm 28.2 ESE 17 24 1013.5 - 0.0 - Mostly cloudy 10 - - - -
01/02:12pm 29.1 ESE 16 26 1013.5 - 0.0 - Mostly cloudy 10 - - - -
01/02:00pm 28.3 ESE 15 21 1013.6 - 0.0 - Mostly cloudy 10 - - - -
01/01:30pm 28.1 ESE 17 23 1013.8 - 0.0 - Mostly cloudy 10 - - - -
01/01:00pm 28.4 ESE 17 23 1014.2 - 0.0 - Partly cloudy 10 - - - -
01/12:30pm 28.3 ESE 17 24 1014.4 - 0.0 - Partly cloudy 10 - - - -
01/12:18pm 29.6 ESE 17 27 1014.5 - 0.0 - Mostly clear 10 - - - -
01/12:00pm 29.6 ESE 17 25 1014.8 F 0.0 - Partly cloudy 10 - - - -
01/11:48am 29.0 ESE 18 28 1015.1 - 0.0 - Partly cloudy 10 - - - -
01/11:30am 29.4 ESE 17 23 1015.3 - 0.0 - Mostly clear 10 - - - -
01/11:00am 28.7 ESE 17 26 1015.5 - 0.0 - Mostly clear 10 - - - -
01/10:30am 28.7 ESE 19 26 1015.6 - 0.0 - Mostly clear 10 - - - -
01/10:00am 28.4 ESE 19 25 1015.7 - 0.0 - Mostly clear 10 - - - -
01/09:30am 27.5 ESE 15 22 1015.8 - 0.0 - Mostly clear 10 - - - -
01/09:00am 27.5 ESE 15 21 1015.9 F 2.4 - Mostly clear 10 - - - -
01/08:30am 26.6 ESE 11 17 1015.9 - 2.4 - Mostly clear 10 - - - -
01/08:00am 26.1 ESE 9 14 1015.6 - 2.4 - Partly cloudy 10 - - - -
01/07:30am 24.8 ESE 11 15 1015.3 - 2.4 - Mostly clear 10 - - - -
01/07:00am 23.1 ESE 7 9 1015.2 - 2.4 - Partly cloudy 10 - - - -
01/06:30am 22.0 ESE 6 8 1015.0 - 2.4 - Partly cloudy 10 - - - -
01/06:00am 21.6 SE 5 6 1014.8 R 2.4 - - 10 - - - -
01/05:30am 22.7 SE 7 10 1014.6 - 2.4 - - 10 - - - -
01/05:00am 23.3 SE 7 11 1014.3 - 2.4 - - 10 - - - -
01/04:30am 24.0 SE 11 15 1014.0 - 2.4 - Partly cloudy 10 - - - -
01/04:00am 24.3 SE 9 11 1014.1 - 2.4 - Cloudy 10 - - - -
01/03:30am 24.1 SE 10 14 1014.0 - 2.4 - Partly cloudy 10 - - - -
01/03:00am 24.1 SE 10 14 1014.1 F 2.4 - Partly cloudy 10 - - - -
01/02:30am 24.1 SE 10 16 1014.2 - 2.4 - Partly cloudy 10 - - - -
01/02:00am 24.3 SE 10 13 1014.4 - 2.4 - - 10 - - - -
01/01:30am 24.6 ESE 12 17 1014.8 - 2.4 - - 10 - - - -
01/01:00am 25.0 ESE 11 17 1015.1 - 2.4 - Partly cloudy 10 - - - -
01/12:30am 25.1 SE 11 16 1015.3 - 2.4 - Partly cloudy 10 - - - -
01/12:00am 24.9 SE 10 15 1015.5 S 2.4 - Partly cloudy 10 - - - -
 
Date/Time
CST
Temp
°C
Wind Pressure Rain since
9am
mm
Weather Cloud Vis
km
Sea
Height
m
Swell
Dir  Spd
kts
Gust
kts
hPa Trend Height
m
Period
s
Dir
30/11:30pm 25.3 ESE 11 15 1015.7 - 2.4 - Partly cloudy 10 - - - -
30/11:00pm 25.4 ESE 11 16 1015.7 - 2.4 - Partly cloudy 10 - - - -
30/10:30pm 25.3 ESE 12 16 1015.8 - 2.4 - Partly cloudy 10 - - - -
30/10:00pm 25.6 ESE 13 18 1015.9 - 2.4 - Partly cloudy 10 - - - -
30/09:30pm 25.8 SE 12 16 1015.9 - 2.4 - Partly cloudy 10 - - - -
30/09:00pm 25.6 SE 12 16 1015.7 R 2.4 - Mostly cloudy 10 - - - -
30/08:30pm 25.7 ESE 11 17 1015.7 - 2.4 - Partly cloudy 10 - - - -
30/08:00pm 25.8 SE 12 17 1015.4 - 2.4 - Partly cloudy 10 - - - -
30/07:30pm 25.7 SE 12 17 1015.0 - 2.4 - Partly cloudy 10 - - - -
30/07:00pm 25.4 SE 10 18 1014.5 - 2.4 - Partly cloudy 10 - - - -
30/06:30pm 26.1 ESE 12 16 1014.2 - 2.4 - Partly cloudy 10 - - - -
30/06:00pm 26.2 ESE 10 15 1013.9 S 2.4 - Cloudy 10 - - - -
30/05:30pm 25.9 ESE 11 15 1013.7 - 2.4 - Partly cloudy 10 - - - -
30/05:00pm 26.9 ESE 13 17 1013.4 - 2.4 - Partly cloudy 10 - - - -
30/04:30pm 26.7 ESE 11 16 1013.3 - 2.4 - Partly cloudy 10 - - - -
30/04:00pm 27.5 ESE 15 21 1013.2 - 2.4 - Partly cloudy 10 - - - -
30/03:30pm 27.4 ESE 17 21 1013.2 - 2.4 - Mostly clear 10 - - - -
30/03:00pm 28.0 ESE 16 22 1013.3 F 2.4 - Cloudy 10 - - - -
30/02:30pm 27.9 ESE 16 19 1013.6 - 2.4 - Partly cloudy 10 - - - -
30/02:00pm 27.5 SE 13 18 1013.8 - 2.4 - Partly cloudy 10 - - - -
30/01:30pm 28.1 SE 14 20 1014.1 - 2.4 - Mostly cloudy 10 - - - -
30/01:00pm 28.3 SE 14 21 1014.5 - 2.4 - Mostly cloudy 10 - - - -
30/12:30pm 28.7 ESE 13 18 1015.0 - 2.4 - Mostly cloudy 10 - - - -
30/12:00pm 28.3 ESE 17 22 1015.4 F 2.4 - Cloudy 10 - - - -
30/11:30am 28.6 ESE 16 23 1015.7 - 2.4 - Partly cloudy 10 - - - -
30/11:00am 27.5 ESE 15 21 1016.1 - 2.4 - Mostly clear 10 - - - -
30/10:30am 28.1 ESE 15 19 1016.3 - 2.2 - Partly cloudy 10 - - - -
30/10:00am 27.2 ESE 13 20 1016.6 - 2.2 - Mostly clear 10 - - - -
30/09:30am 25.5 E 9 12 1016.7 - 2.2 - Mostly clear 10 - - - -
30/09:25am 24.9 E 9 12 1016.7 - 2.2 - Mostly clear 10 - - - -
30/09:05am 25.2 E 10 13 1016.7 - 0.0 Showers Mostly clear 4 - - - -
30/09:00am 25.9 ESE 11 16 1016.6 R 0.0 - Cloudy 10 - - - -
30/08:30am 27.0 SE 10 15 1016.2 - 0.0 - Mostly clear 10 - - - -
30/08:00am 26.5 SE 9 14 1015.8 - 0.0 - Mostly clear 10 - - - -
30/07:30am 25.9 ESE 9 14 1015.5 - 0.0 - Mostly clear 10 - - - -
30/07:00am 25.5 SE 9 13 1015.0 - 0.0 - Partly cloudy 10 - - - -
30/06:30am 25.7 SE 10 14 1014.7 - 0.0 - Partly cloudy 10 - - - -
30/06:00am 25.9 SE 11 15 1014.5 F 0.0 - Mostly cloudy 10 - - - -
30/05:30am 26.0 SE 10 14 1014.4 - 0.0 - Partly cloudy 10 - - - -
30/05:00am 26.3 SE 11 15 1014.3 - 0.0 - Partly cloudy 10 - - - -
30/04:30am 26.1 ESE 9 13 1014.4 - 0.0 - Partly cloudy 10 - - - -
30/04:00am 26.0 ESE 10 13 1014.3 - 0.0 - Partly cloudy 10 - - - -
30/03:30am 25.9 ESE 9 13 1014.2 - 0.0 - Partly cloudy 10 - - - -
30/03:00am 26.0 SE 9 14 1014.3 R 0.0 - Cloudy 10 - - - -
30/02:30am 25.8 SE 9 13 1014.6 - 0.0 - Cloudy 10 - - - -
30/02:00am 25.7 SE 9 11 1014.7 - 0.0 - Partly cloudy 10 - - - -
30/01:30am 25.9 SE 8 12 1014.9 - 0.0 - Partly cloudy 10 - - - -
30/01:00am 25.9 SE 8 11 1015.0 - 0.0 - Partly cloudy 10 - - - -
30/12:30am 25.7 SE 8 11 1015.1 - 0.0 - Partly cloudy 10 - - - -
30/12:00am 25.7 SE 8 10 1015.3 F 0.0 - Cloudy 10 - - - -
 
Date/Time
CST
Temp
°C
Wind Pressure Rain since
9am
mm
Weather Cloud Vis
km
Sea
Height
m
Swell
Dir  Spd
kts
Gust
kts
hPa Trend Height
m
Period
s
Dir
29/11:30pm 25.6 SE 8 11 1015.4 - 0.0 - Partly cloudy 10 - - - -
29/11:00pm 25.3 SE 6 8 1015.6 - 0.0 - Partly cloudy 10 - - - -
29/10:30pm 25.4 SE 7 11 1015.5 - 0.0 - Partly cloudy 10 - - - -
29/10:00pm 25.2 SE 6 9 1015.5 - 0.0 - Partly cloudy 10 - - - -
29/09:30pm 25.3 SE 7 9 1015.6 - 0.0 - Partly cloudy 10 - - - -
29/09:00pm 25.3 SE 7 9 1015.5 R 0.0 - Mostly clear 10 - - - -
29/08:30pm 25.5 SE 8 11 1015.2 - 0.0 - Partly cloudy 10 - - - -
29/08:00pm 25.8 SE 8 12 1015.1 - 0.0 - Partly cloudy 10 - - - -
29/07:30pm 25.4 ESE 7 10 1014.8 - 0.0 - - 10 - - - -
29/07:00pm 26.0 SE 9 12 1014.4 - 0.0 - Partly cloudy 10 - - - -
29/06:30pm 26.2 SE 10 14 1014.2 - 0.0 - Partly cloudy 10 - - - -
29/06:00pm 26.3 SE 10 13 1013.9 R 0.0 - Mostly cloudy 10 - - - -
29/05:30pm 26.8 SE 12 17 1013.6 - 0.0 - Partly cloudy 10 - - - -
29/05:00pm 27.0 SE 11 16 1013.4 - 0.0 - Partly cloudy 10 - - - -
29/04:30pm 26.6 SE 12 17 1013.3 - 0.0 - Partly cloudy 10 - - - -
29/04:00pm 26.9 SE 13 22 1013.0 - 0.0 - Partly cloudy 10 - - - -
29/03:30pm 26.1 SE 10 16 1013.2 - 0.0 - Mostly cloudy 10 - - - -
29/03:00pm 28.3 SE 13 18 1013.2 F 0.0 - Cloudy 10 - - - -
29/02:30pm 28.0 SE 14 20 1013.2 - 0.0 - Mostly cloudy 10 - - - -
29/02:00pm 27.7 SE 13 21 1013.7 - 0.0 - Mostly cloudy 10 - - - -
29/01:30pm 27.9 SE 17 23 1014.1 - 0.0 - Mostly cloudy 10 - - - -
29/01:00pm 27.3 SE 15 21 1014.6 - 0.0 - Mostly cloudy 10 - - - -
29/12:30pm 27.0 SE 13 21 1015.0 - 0.0 - Mostly cloudy 10 - - - -
29/12:00pm 27.7 SE 14 23 1015.5 F 0.0 - Cloudy 10 - - - -
29/11:30am 28.2 SE 12 19 1015.9 - 0.0 - Partly cloudy 10 - - - -
29/11:00am 27.5 SE 16 23 1016.2 - 0.0 - Partly cloudy 10 - - - -
29/10:30am 27.1 SE 15 23 1016.4 - 0.0 - Partly cloudy 10 - - - -
29/10:00am 26.9 SE 17 22 1016.5 - 0.0 - Partly cloudy 10 - - - -
29/09:30am 26.8 SE 13 21 1016.5 - 0.0 - Partly cloudy 10 - - - -
29/09:00am 26.1 SE 13 21 1016.4 F 0.0 - Cloudy 10 - - - -
29/08:30am 26.0 SE 11 18 1016.2 - 0.0 - Partly cloudy 10 - - - -
29/08:00am 25.9 SE 12 18 1015.9 - 0.0 - Mostly clear 10 - - - -
29/07:30am 25.9 SE 13 20 1015.6 - 0.0 - Mostly clear 10 - - - -
29/07:00am 25.4 SE 10 15 1015.5 - 0.0 - Partly cloudy 10 - - - -
29/06:30am 25.2 SE 11 15 1015.1 - 0.0 - Partly cloudy 10 - - - -
29/06:00am 25.4 SE 12 18 1015.0 S 0.0 - Cloudy 10 - - - -
29/05:30am 25.6 SE 12 19 1014.8 - 0.0 - Partly cloudy 10 - - - -
29/05:00am 25.8 SE 14 21 1014.8 - 0.0 - Partly cloudy 10 - - - -
29/04:30am 25.8 SE 13 18 1014.7 - 0.0 - Partly cloudy 10 - - - -

Other Formats:

Comma delimited format used in spreadsheet applications
http://www.bom.gov.au/fwo/IDD60701/IDD60701.94150.axf

JavaScript Object Notation format (JSON) in row-major order
http://www.bom.gov.au/fwo/IDD60701/IDD60701.94150.json